createdAt,value
2018-11-26T00:00:32.215Z,21.70
2018-11-26T00:03:00.216Z,21.97
2018-11-26T00:05:28.252Z,23.20
2018-11-26T00:08:12.935Z,22.63
2018-11-26T00:10:52.011Z,21.60
2018-11-26T00:13:19.921Z,20.70
2018-11-26T00:15:47.847Z,21.07
2018-11-26T00:18:15.746Z,21.17
2018-11-26T00:20:43.704Z,21.50
2018-11-26T00:23:11.581Z,21.60
2018-11-26T00:25:39.482Z,19.73
2018-11-26T00:28:07.520Z,19.57
2018-11-26T00:30:35.431Z,20.43
2018-11-26T00:33:03.348Z,20.90
2018-11-26T00:35:31.291Z,21.00
2018-11-26T00:37:59.194Z,21.10
2018-11-26T00:40:27.122Z,20.87
2018-11-26T00:42:55.063Z,21.03
2018-11-26T00:45:23.035Z,20.70
2018-11-26T00:47:50.929Z,21.33
2018-11-26T00:50:18.864Z,20.93
2018-11-26T00:52:46.907Z,21.33
2018-11-26T00:55:14.802Z,21.63
2018-11-26T00:57:42.752Z,21.13
2018-11-26T01:00:12.007Z,20.23
2018-11-26T01:02:39.929Z,20.57
2018-11-26T01:05:11.171Z,21.40
2018-11-26T01:07:39.100Z,20.80
2018-11-26T01:10:07.027Z,21.57
2018-11-26T01:12:34.964Z,21.93
2018-11-26T01:15:03.085Z,21.63
2018-11-26T01:17:30.988Z,20.43
2018-11-26T01:19:58.920Z,22.67
2018-11-26T01:22:26.866Z,21.07
2018-11-26T01:24:54.768Z,21.27
2018-11-26T01:27:22.697Z,22.50
2018-11-26T01:29:50.606Z,21.77
2018-11-26T01:32:18.586Z,23.60
2018-11-26T01:34:46.515Z,22.67
2018-11-26T01:37:14.440Z,21.90
2018-11-26T01:39:43.151Z,21.90
2018-11-26T01:42:11.108Z,20.87
2018-11-26T01:44:39.018Z,22.43
2018-11-26T01:47:06.932Z,21.03
2018-11-26T01:49:34.895Z,21.97
2018-11-26T01:52:02.803Z,22.00
2018-11-26T01:54:30.742Z,21.63
2018-11-26T01:56:58.699Z,23.80
2018-11-26T01:59:26.639Z,23.70
2018-11-26T02:01:54.546Z,22.93
2018-11-26T02:04:22.542Z,23.57
2018-11-26T02:06:50.434Z,23.17
2018-11-26T02:09:18.335Z,23.43
2018-11-26T02:11:46.307Z,22.07
2018-11-26T02:14:14.208Z,23.17
2018-11-26T02:16:42.143Z,24.17
2018-11-26T02:19:10.120Z,24.90
2018-11-26T02:21:38.097Z,23.40
2018-11-26T02:24:06.048Z,23.37
2018-11-26T02:26:33.965Z,24.77
2018-11-26T02:29:01.872Z,24.43
2018-11-26T02:31:29.885Z,22.20
2018-11-26T02:33:57.824Z,23.83
2018-11-26T02:36:25.787Z,24.10
2018-11-26T02:38:53.704Z,24.33
2018-11-26T02:41:21.632Z,22.30
2018-11-26T02:43:49.534Z,22.20
2018-11-26T02:46:17.471Z,24.90
2018-11-26T02:48:45.477Z,24.17
2018-11-26T02:51:13.391Z,24.40
2018-11-26T02:53:41.298Z,23.80
2018-11-26T02:56:09.308Z,24.47
2018-11-26T02:58:37.208Z,24.70
2018-11-26T03:01:06.399Z,24.63
2018-11-26T03:03:34.364Z,24.03
2018-11-26T03:06:02.280Z,25.33
2018-11-26T03:08:30.251Z,25.70
2018-11-26T03:10:58.161Z,25.57
2018-11-26T03:13:26.054Z,25.10
2018-11-26T03:15:53.958Z,25.37
2018-11-26T03:18:21.878Z,24.17
2018-11-26T03:20:49.808Z,24.90
2018-11-26T03:23:17.800Z,24.80
2018-11-26T03:25:45.728Z,24.90
2018-11-26T03:28:13.631Z,25.97
2018-11-26T03:30:41.534Z,24.53
2018-11-26T03:33:09.467Z,25.17
2018-11-26T03:35:37.394Z,25.90
2018-11-26T03:38:05.572Z,24.10
2018-11-26T03:40:33.592Z,25.57
2018-11-26T03:43:01.485Z,26.33
2018-11-26T03:45:29.829Z,25.60
2018-11-26T03:47:57.812Z,26.07
2018-11-26T03:50:25.728Z,24.87
2018-11-26T03:52:53.649Z,26.43
2018-11-26T03:55:21.963Z,25.60
2018-11-26T03:57:49.967Z,25.73
2018-11-26T04:00:17.882Z,25.50
2018-11-26T04:02:45.829Z,24.77
2018-11-26T04:05:13.768Z,24.73
2018-11-26T04:07:41.767Z,24.70
2018-11-26T04:10:11.292Z,25.87
2018-11-26T04:12:39.333Z,25.53
2018-11-26T04:15:10.089Z,26.43
2018-11-26T04:17:38.046Z,24.97
2018-11-26T04:20:07.059Z,24.57
2018-11-26T04:22:34.973Z,24.30
2018-11-26T04:25:02.955Z,25.43
2018-11-26T04:27:30.876Z,24.80
2018-11-26T04:29:58.779Z,25.00
2018-11-26T04:32:26.710Z,24.97
2018-11-26T04:34:54.596Z,25.50
2018-11-26T04:37:22.466Z,25.93
2018-11-26T04:39:50.392Z,25.57
2018-11-26T04:42:18.290Z,24.70
2018-11-26T04:44:46.252Z,25.17
2018-11-26T04:47:14.200Z,24.87
2018-11-26T04:49:42.099Z,24.73
2018-11-26T04:52:09.986Z,27.07
2018-11-26T04:54:37.959Z,27.07
2018-11-26T04:57:05.880Z,25.97
2018-11-26T04:59:33.889Z,26.57
2018-11-26T05:02:01.805Z,27.47
2018-11-26T05:04:29.716Z,28.57
2018-11-26T05:06:57.612Z,29.17
2018-11-26T05:09:25.547Z,29.80
2018-11-26T05:11:53.481Z,30.20
2018-11-26T05:14:21.366Z,29.63
2018-11-26T05:16:49.356Z,29.73
2018-11-26T05:19:17.240Z,30.70
2018-11-26T05:21:45.126Z,30.87
2018-11-26T05:24:13.061Z,30.60
2018-11-26T05:26:40.953Z,30.90
2018-11-26T05:29:08.835Z,29.97
2018-11-26T05:31:36.761Z,30.50
2018-11-26T05:34:04.985Z,31.17
2018-11-26T05:36:32.980Z,32.43
2018-11-26T05:39:00.902Z,32.63
2018-11-26T05:41:28.807Z,31.67
2018-11-26T05:43:56.703Z,31.90
2018-11-26T05:46:24.631Z,31.73
2018-11-26T05:48:52.603Z,32.77
2018-11-26T05:51:20.525Z,31.57
2018-11-26T05:53:48.463Z,32.20
2018-11-26T05:56:16.397Z,33.07
2018-11-26T05:58:44.285Z,33.37
2018-11-26T06:01:12.347Z,33.17
2018-11-26T06:03:40.303Z,32.10
2018-11-26T06:06:08.199Z,32.47
2018-11-26T06:08:36.136Z,31.33
2018-11-26T06:11:04.177Z,31.87
2018-11-26T06:13:32.079Z,31.80
2018-11-26T06:16:04.931Z,29.50
2018-11-26T06:18:32.820Z,31.60
2018-11-26T06:21:00.772Z,32.30
2018-11-26T06:23:29.455Z,31.10
2018-11-26T06:25:57.343Z,31.70
2018-11-26T06:28:25.237Z,31.03
2018-11-26T06:30:54.172Z,31.70
2018-11-26T06:33:27.892Z,30.47
2018-11-26T06:35:55.904Z,30.40
2018-11-26T06:38:23.799Z,31.53
2018-11-26T06:40:51.725Z,29.60
2018-11-26T06:43:19.664Z,28.57
2018-11-26T06:45:47.559Z,30.13
2018-11-26T06:48:15.451Z,29.93
2018-11-26T06:50:43.421Z,28.87
2018-11-26T06:53:11.455Z,26.53
2018-11-26T06:55:39.418Z,25.53
2018-11-26T06:58:07.384Z,27.37
2018-11-26T07:00:35.336Z,26.27
2018-11-26T07:03:04.224Z,26.50
2018-11-26T07:05:32.218Z,25.07
2018-11-26T07:08:00.108Z,26.20
2018-11-26T07:10:28.008Z,25.30
2018-11-26T07:12:55.964Z,24.77
2018-11-26T07:15:23.896Z,23.97
2018-11-26T07:17:51.836Z,25.27
2018-11-26T07:20:20.772Z,24.63
2018-11-26T07:22:48.760Z,24.37
2018-11-26T07:25:18.340Z,24.73
2018-11-26T07:27:48.068Z,25.33
2018-11-26T07:30:17.355Z,25.07
2018-11-26T07:32:45.264Z,24.53
2018-11-26T07:35:13.936Z,25.47
2018-11-26T07:37:42.105Z,26.30
2018-11-26T07:40:12.429Z,30.37
2018-11-26T07:42:42.139Z,30.33
2018-11-26T07:45:12.740Z,28.27
2018-11-26T07:47:40.676Z,27.33
2018-11-26T07:50:13.213Z,27.87
2018-11-26T07:52:41.471Z,26.30
2018-11-26T07:55:12.119Z,26.07
2018-11-26T07:57:40.158Z,25.30
2018-11-26T08:00:13.709Z,27.07
2018-11-26T08:02:42.321Z,26.03
2018-11-26T08:05:11.669Z,28.37
2018-11-26T08:07:39.624Z,27.30
2018-11-26T08:10:12.731Z,28.70
2018-11-26T08:12:40.804Z,26.63
2018-11-26T08:15:13.807Z,27.77
2018-11-26T08:17:42.215Z,27.00
2018-11-26T08:20:10.659Z,28.23
2018-11-26T08:22:38.659Z,28.43
2018-11-26T08:25:09.266Z,28.67
2018-11-26T08:27:37.259Z,28.27
2018-11-26T08:30:24.077Z,29.40
2018-11-26T08:32:54.407Z,31.13
2018-11-26T08:35:22.339Z,40.20
2018-11-26T08:37:55.826Z,35.13
2018-11-26T08:40:26.075Z,29.67
2018-11-26T08:42:57.800Z,28.53
2018-11-26T08:45:29.267Z,27.90
2018-11-26T08:48:00.261Z,27.67
2018-11-26T08:50:28.169Z,28.67
2018-11-26T08:52:56.073Z,27.60
2018-11-26T08:55:23.991Z,29.87
2018-11-26T08:57:51.918Z,30.00
2018-11-26T09:00:19.863Z,32.60
2018-11-26T09:02:48.689Z,31.00
2018-11-26T09:05:27.020Z,30.03
2018-11-26T09:07:55.032Z,31.63
2018-11-26T09:10:22.936Z,33.57
2018-11-26T09:12:50.843Z,33.70
2018-11-26T09:15:18.747Z,29.90
2018-11-26T09:17:46.645Z,37.67
2018-11-26T09:20:14.572Z,36.90
2018-11-26T09:22:42.517Z,31.33
2018-11-26T09:25:11.578Z,29.53
2018-11-26T09:27:39.594Z,29.37
2018-11-26T09:30:11.772Z,28.30
2018-11-26T09:32:40.396Z,27.63
2018-11-26T09:35:10.135Z,26.97
2018-11-26T09:37:38.120Z,27.70
2018-11-26T09:40:07.958Z,27.87
2018-11-26T09:42:35.904Z,27.13
2018-11-26T09:45:05.044Z,27.50
2018-11-26T09:47:32.994Z,28.27
2018-11-26T09:50:00.954Z,26.37
2018-11-26T09:52:28.892Z,28.90
2018-11-26T09:54:56.792Z,27.30
2018-11-26T09:57:24.675Z,27.70
2018-11-26T09:59:52.663Z,27.93
2018-11-26T10:02:20.608Z,28.33
2018-11-26T10:04:48.632Z,26.73
2018-11-26T10:07:16.633Z,26.77
2018-11-26T10:09:44.527Z,27.43
2018-11-26T10:12:12.423Z,26.60
2018-11-26T10:14:40.350Z,27.27
2018-11-26T10:17:08.236Z,27.53
2018-11-26T10:19:36.187Z,26.10
2018-11-26T10:22:04.266Z,26.07
2018-11-26T10:24:32.157Z,27.03
2018-11-26T10:27:00.093Z,25.30
2018-11-26T10:29:28.023Z,25.47
2018-11-26T10:31:56.173Z,27.80
2018-11-26T10:34:24.130Z,27.80
2018-11-26T10:36:52.145Z,27.07
2018-11-26T10:39:20.046Z,26.50
2018-11-26T10:41:47.932Z,26.83
2018-11-26T10:44:15.872Z,27.40
2018-11-26T10:46:43.814Z,26.50
2018-11-26T10:49:11.740Z,27.10
2018-11-26T10:51:39.703Z,26.97
2018-11-26T10:54:07.613Z,26.73
2018-11-26T10:56:35.516Z,25.80
2018-11-26T10:59:03.499Z,26.93
2018-11-26T11:01:38.722Z,26.17
2018-11-26T11:04:07.104Z,25.93
2018-11-26T11:06:35.022Z,25.40
2018-11-26T11:09:03.405Z,26.70
2018-11-26T11:11:31.372Z,27.07
2018-11-26T11:13:59.309Z,27.20
2018-11-26T11:16:27.202Z,28.50
2018-11-26T11:18:55.217Z,28.50
2018-11-26T11:21:23.131Z,27.77
2018-11-26T11:23:51.015Z,26.97
2018-11-26T11:26:18.951Z,27.50
2018-11-26T11:28:46.874Z,27.00
2018-11-26T11:31:14.785Z,27.70
2018-11-26T11:33:42.737Z,27.23
2018-11-26T11:36:10.653Z,27.77
2018-11-26T11:38:38.563Z,26.83
2018-11-26T11:41:06.597Z,27.57
2018-11-26T11:43:34.508Z,26.57
2018-11-26T11:46:02.398Z,25.83
2018-11-26T11:48:30.340Z,26.00
2018-11-26T11:50:58.248Z,25.00
2018-11-26T11:53:26.161Z,24.90
2018-11-26T11:55:54.177Z,26.37
2018-11-26T11:58:22.103Z,24.60
2018-11-26T12:00:50.418Z,20.90
2018-11-26T12:03:19.515Z,22.47
2018-11-26T12:05:47.473Z,21.77
2018-11-26T12:08:15.507Z,23.07
2018-11-26T12:10:47.205Z,22.73
2018-11-26T12:13:15.695Z,21.87
2018-11-26T12:15:47.241Z,21.83
2018-11-26T12:18:15.165Z,23.23
2018-11-26T12:20:43.081Z,21.57
2018-11-26T12:23:11.141Z,20.63
2018-11-26T12:25:39.044Z,20.93
2018-11-26T12:28:06.987Z,20.73
2018-11-26T12:30:36.998Z,21.20
2018-11-26T12:33:05.281Z,20.60
2018-11-26T12:35:33.205Z,21.33
2018-11-26T12:38:01.164Z,19.73
2018-11-26T12:40:29.084Z,20.37
2018-11-26T12:42:58.348Z,21.47
2018-11-26T12:45:34.029Z,22.47
2018-11-26T12:48:02.341Z,21.13
2018-11-26T12:50:30.253Z,21.30
2018-11-26T12:52:58.450Z,24.73
2018-11-26T12:55:26.318Z,23.37
2018-11-26T12:57:55.305Z,21.20
2018-11-26T13:00:28.160Z,20.43
2018-11-26T13:03:14.496Z,20.10
2018-11-26T13:05:42.448Z,23.37
2018-11-26T13:08:10.384Z,23.03
2018-11-26T13:10:38.783Z,23.17
2018-11-26T13:13:08.208Z,23.13
2018-11-26T13:15:36.909Z,26.47
2018-11-26T13:18:05.212Z,24.20
2018-11-26T13:20:33.322Z,23.37
2018-11-26T13:23:01.269Z,21.47
2018-11-26T13:25:32.017Z,24.33
2018-11-26T13:28:02.173Z,24.23
2018-11-26T13:30:34.629Z,23.50
2018-11-26T13:33:04.031Z,24.10
2018-11-26T13:35:31.954Z,24.77
2018-11-26T13:37:59.913Z,24.37
2018-11-26T13:40:28.469Z,23.60
2018-11-26T13:42:56.408Z,22.70
2018-11-26T13:45:28.165Z,22.63
2018-11-26T13:47:57.059Z,22.00
2018-11-26T13:50:30.756Z,22.20
2018-11-26T13:52:58.904Z,22.47
2018-11-26T13:55:26.728Z,22.27
2018-11-26T13:57:54.653Z,23.00
2018-11-26T14:00:23.578Z,22.07
2018-11-26T14:02:51.608Z,22.70
2018-11-26T14:05:19.652Z,21.10
2018-11-26T14:07:47.832Z,21.50
2018-11-26T14:10:18.075Z,23.43
2018-11-26T14:12:47.866Z,36.83
2018-11-26T14:15:15.864Z,22.87
2018-11-26T14:17:43.828Z,20.73
2018-11-26T14:20:14.048Z,21.93
2018-11-26T14:22:42.121Z,22.57
2018-11-26T14:25:16.068Z,20.27
2018-11-26T14:27:44.804Z,21.53
2018-11-26T14:30:16.664Z,21.33
2018-11-26T14:32:44.581Z,20.33
2018-11-26T14:35:12.559Z,21.50
2018-11-26T14:37:41.458Z,19.00
2018-11-26T14:40:14.224Z,19.67
2018-11-26T14:42:42.868Z,19.30
2018-11-26T14:45:12.910Z,18.97
2018-11-26T14:47:41.184Z,17.43
2018-11-26T14:50:12.366Z,16.97
2018-11-26T14:52:42.112Z,17.63
2018-11-26T14:55:18.509Z,18.37
2018-11-26T14:57:47.436Z,15.77
2018-11-26T15:00:17.378Z,15.50
2018-11-26T15:02:45.612Z,16.97
2018-11-26T15:05:13.802Z,16.30
2018-11-26T15:07:42.368Z,16.70
2018-11-26T15:10:26.753Z,15.13
2018-11-26T15:12:56.444Z,14.17
2018-11-26T15:15:26.480Z,15.10
2018-11-26T15:17:57.334Z,13.80
2018-11-26T15:20:27.838Z,15.37
2018-11-26T15:23:00.567Z,10.93
2018-11-26T15:25:33.405Z,10.37
2018-11-26T15:28:15.925Z,11.03
2018-11-26T15:30:43.932Z,9.77
2018-11-26T15:33:11.979Z,10.43
2018-11-26T15:35:39.903Z,10.53
2018-11-26T15:38:08.732Z,11.27
2018-11-26T15:40:38.582Z,12.23
2018-11-26T15:43:08.048Z,11.77
2018-11-26T15:45:37.313Z,13.17
2018-11-26T15:48:09.964Z,11.90
2018-11-26T15:50:37.994Z,20.23
2018-11-26T15:53:07.830Z,14.90
2018-11-26T15:55:36.595Z,14.23
2018-11-26T15:58:06.180Z,13.57
2018-11-26T16:00:34.146Z,14.53
2018-11-26T16:03:02.115Z,12.30
2018-11-26T16:05:34.023Z,13.27
2018-11-26T16:08:12.175Z,13.90
2018-11-26T16:10:44.805Z,14.30
2018-11-26T16:13:16.960Z,15.07
2018-11-26T16:15:46.105Z,13.60
2018-11-26T16:18:22.950Z,15.07
2018-11-26T16:20:53.240Z,15.00
2018-11-26T16:23:49.613Z,16.20
2018-11-26T16:26:22.317Z,15.83
2018-11-26T16:28:55.276Z,14.27
2018-11-26T16:31:25.039Z,14.20
2018-11-26T16:33:53.201Z,13.83
2018-11-26T16:36:22.018Z,14.57
2018-11-26T16:38:51.138Z,15.13
2018-11-26T16:41:23.334Z,16.83
2018-11-26T16:43:53.155Z,16.57
2018-11-26T16:46:23.233Z,16.23
2018-11-26T16:48:55.973Z,17.67
2018-11-26T16:51:27.905Z,17.63
2018-11-26T16:53:56.828Z,17.00
2018-11-26T16:56:26.869Z,15.80
2018-11-26T16:58:56.078Z,15.77
2018-11-26T17:01:26.749Z,15.87
2018-11-26T17:03:57.137Z,16.97
2018-11-26T17:06:25.581Z,16.97
2018-11-26T17:08:55.502Z,18.23
2018-11-26T17:11:25.724Z,18.40
2018-11-26T17:13:55.025Z,19.10
2018-11-26T17:16:23.483Z,18.80
2018-11-26T17:18:56.403Z,20.77
2018-11-26T17:21:39.002Z,22.07
2018-11-26T17:24:09.184Z,23.30
2018-11-26T17:26:38.169Z,23.17
2018-11-26T17:29:07.714Z,24.40
2018-11-26T17:31:51.002Z,26.43
2018-11-26T17:34:23.045Z,24.67
2018-11-26T17:36:53.095Z,24.57
2018-11-26T17:39:22.420Z,24.73
2018-11-26T17:41:50.983Z,26.03
2018-11-26T17:44:19.544Z,26.07
2018-11-26T17:46:48.127Z,26.23
2018-11-26T17:49:18.649Z,26.50
2018-11-26T17:51:47.643Z,27.03
2018-11-26T17:54:17.251Z,26.10
2018-11-26T17:56:48.308Z,26.10
2018-11-26T17:59:18.817Z,25.57
2018-11-26T18:01:47.933Z,24.20
2018-11-26T18:04:17.340Z,25.33
2018-11-26T18:06:47.572Z,23.60
2018-11-26T18:09:22.806Z,24.67
2018-11-26T18:11:49.063Z,24.40
2018-11-26T18:14:20.109Z,25.43
2018-11-26T18:16:49.713Z,24.77
2018-11-26T18:19:19.368Z,24.93
2018-11-26T18:21:49.505Z,24.90
2018-11-26T18:24:21.313Z,23.53
2018-11-26T18:26:53.582Z,24.20
2018-11-26T18:29:25.454Z,24.60
2018-11-26T18:31:55.714Z,23.63
2018-11-26T18:34:24.659Z,25.37
2018-11-26T18:36:58.368Z,24.43
2018-11-26T18:39:30.597Z,26.37
2018-11-26T18:42:03.411Z,27.10
2018-11-26T18:44:39.051Z,24.77
2018-11-26T18:47:09.412Z,26.77
2018-11-26T18:49:42.013Z,24.50
2018-11-26T18:52:12.564Z,25.63
2018-11-26T18:54:51.088Z,25.60
2018-11-26T18:57:24.227Z,26.03
2018-11-26T18:59:54.432Z,26.60
2018-11-26T19:02:28.663Z,28.03
2018-11-26T19:05:06.540Z,27.70
2018-11-26T19:07:38.746Z,28.57
2018-11-26T19:10:20.323Z,28.57
2018-11-26T19:13:02.169Z,30.73
2018-11-26T19:15:35.052Z,27.00
2018-11-26T19:18:43.221Z,25.33
2018-11-26T19:21:14.621Z,24.10
2018-11-26T19:23:47.379Z,23.90
2018-11-26T19:26:16.826Z,22.83
2018-11-26T19:28:51.628Z,21.40
2018-11-26T19:31:27.679Z,21.90
2018-11-26T19:33:58.399Z,22.73
2018-11-26T19:36:27.714Z,22.87
2018-11-26T19:38:57.324Z,22.60
2018-11-26T19:41:28.203Z,22.47
2018-11-26T19:43:58.932Z,22.73
2018-11-26T19:46:28.361Z,23.40
2018-11-26T19:48:58.841Z,23.83
2018-11-26T19:51:31.501Z,24.00
2018-11-26T19:54:03.270Z,22.77
2018-11-26T19:56:36.622Z,22.37
2018-11-26T19:59:06.681Z,23.73
2018-11-26T20:01:40.314Z,23.93
2018-11-26T20:04:30.538Z,23.33
2018-11-26T20:07:00.876Z,24.90
2018-11-26T20:09:34.410Z,25.13
2018-11-26T20:12:04.125Z,24.80
2018-11-26T20:14:33.887Z,28.00
2018-11-26T20:17:04.177Z,29.30
2018-11-26T20:19:38.410Z,27.53
2018-11-26T20:22:07.337Z,26.97
2018-11-26T20:24:40.068Z,27.60
2018-11-26T20:27:13.661Z,28.27
2018-11-26T20:29:43.006Z,26.83
2018-11-26T20:32:15.130Z,28.50
2018-11-26T20:34:47.192Z,26.60
2018-11-26T20:37:17.449Z,25.27
2018-11-26T20:39:46.840Z,27.80
2018-11-26T20:42:16.571Z,28.23
2018-11-26T20:44:47.088Z,29.77
2018-11-26T20:47:16.778Z,24.90
2018-11-26T20:49:46.356Z,26.13
2018-11-26T20:52:15.728Z,25.27
2018-11-26T20:54:49.739Z,25.73
2018-11-26T20:57:21.101Z,25.80
2018-11-26T20:59:52.571Z,24.70
2018-11-26T21:02:21.312Z,25.73
2018-11-26T21:04:52.616Z,26.17
2018-11-26T21:07:22.223Z,30.43
2018-11-26T21:09:52.495Z,32.50
2018-11-26T21:12:22.391Z,29.77
2018-11-26T21:14:54.303Z,31.27
2018-11-26T21:17:25.313Z,30.00
2018-11-26T21:20:00.596Z,29.13
2018-11-26T21:22:32.755Z,28.57
2018-11-26T21:25:02.099Z,28.93
2018-11-26T21:27:39.569Z,28.03
2018-11-26T21:30:11.809Z,28.80
2018-11-26T21:32:42.325Z,26.57
2018-11-26T21:35:12.837Z,27.87
2018-11-26T21:37:47.995Z,26.27
2018-11-26T21:40:20.438Z,26.37
2018-11-26T21:42:47.196Z,24.90
2018-11-26T21:45:25.644Z,26.10
2018-11-26T21:47:56.204Z,27.37
2018-11-26T21:50:28.723Z,25.50
2018-11-26T21:53:04.393Z,25.43
2018-11-26T21:55:35.014Z,26.53
2018-11-26T21:58:10.023Z,25.07
2018-11-26T22:00:42.220Z,27.17
2018-11-26T22:03:13.440Z,27.13
2018-11-26T22:05:45.736Z,26.53
2018-11-26T22:08:16.249Z,26.47
2018-11-26T22:10:46.650Z,25.77
2018-11-26T22:13:20.897Z,26.73
2018-11-26T22:15:49.833Z,28.67
2018-11-26T22:18:20.069Z,29.50
2018-11-26T22:20:50.430Z,30.23
2018-11-26T22:23:19.961Z,28.13
2018-11-26T22:25:49.576Z,30.63
2018-11-26T22:28:19.099Z,28.60
2018-11-26T22:30:47.924Z,28.80
2018-11-26T22:33:17.555Z,26.43
2018-11-26T22:35:48.247Z,27.43
2018-11-26T22:38:16.796Z,27.00
2018-11-26T22:40:44.784Z,29.33
2018-11-26T22:43:13.241Z,30.27
2018-11-26T22:45:41.165Z,29.37
2018-11-26T22:48:11.843Z,31.17
2018-11-26T22:50:43.514Z,30.97
2018-11-26T22:53:11.550Z,28.73
2018-11-26T22:55:39.574Z,27.73
2018-11-26T22:58:14.237Z,28.43
2018-11-26T23:00:50.914Z,29.43
2018-11-26T23:03:21.132Z,31.07
2018-11-26T23:05:55.154Z,31.83
2018-11-26T23:08:23.770Z,31.23
2018-11-26T23:10:54.233Z,30.33
2018-11-26T23:13:22.709Z,32.10
2018-11-26T23:15:52.762Z,33.93
2018-11-26T23:18:20.810Z,35.03
2018-11-26T23:20:49.454Z,36.37
2018-11-26T23:23:18.154Z,37.20
2018-11-26T23:25:46.156Z,39.03
2018-11-26T23:28:14.137Z,38.03
2018-11-26T23:30:42.078Z,35.63
2018-11-26T23:33:10.086Z,33.97
2018-11-26T23:35:38.049Z,36.43
2018-11-26T23:38:06.090Z,34.13
2018-11-26T23:40:34.789Z,30.83
2018-11-26T23:43:02.712Z,30.97
2018-11-26T23:45:30.712Z,33.83
2018-11-26T23:47:58.655Z,31.30
2018-11-26T23:50:26.619Z,33.53
2018-11-26T23:52:54.596Z,31.53
2018-11-26T23:55:23.490Z,30.80
2018-11-26T23:57:51.477Z,29.43
